LiveATC.Net - Listen to live air traffic control over the Internet! Contact for advertising information

ICAO: FIMP  IATA: MRU   Airport: Sir Seewoosagur Ramgoolam International Airport
City: Plaine Magnien
Country: Mauritius   Continent: Africa
FMEE METAR Weather: FMEE 260600Z 06014KT 9999 FEW023 30/22 Q1015 NOSIG
FIMP Flight Activity (FlightAware)
FIMP Twr/App/Center
Feed Status: UP   Listeners: 5
Listen right in your browser - requires Flash (in browser, requires Flash)
Click here to listen with your own player (launches your MP3 player)
FIMP Twr/App/Center Audio Archives
FIMP Approach119.100
FIMP Tower118.100
Mauritius Centre129.300


Unauthorized use prohibited. See Terms of Service

Find LiveATC Audio Streams

Airport/ARTCC Code

(e.g., 124.400, 128.75)
Site-wide search

Browse LiveATC Feeds
LiveATC Coverage Map
Top 50 LiveATC Feeds
Bad Weather Areas

Offer a LiveATC Feed
Press Inquiries

LiveATC on iPhone
LiveATC on Android

Windows Phone
Windows 8/10

LiveATC Mobile
(Mobile browser)

ATC Audio Archives
Interesting Recordings

LiveATC Forums

Home Page
Make a Donation
LiveATC Bookstore

Terms of Use
Privacy Policy

ATC/Radar Sites
U.S. ARTCC Freqs
Canadian Air Freqs


FAA Airport Status
Nat'l Airspace Status
Arrival Demand Charts

Server Software By:

Please make a donation to help us keep growing!